^^

..:: Storico WU ::..




Lo storico viene creato da WUnderground con i dati che la stazione Meteomincio invia al loro server. L' aggiornamento viene fatto ogni 5 minuti circa, tuttavia possono esserci intervalli pi¨ ampi a causa di errori, interruzioni di servizio o problemi nell' invio tramite FTP.


Storico stazione MeteoMincio
Giorno Sommario per Marzo 27, 2023 Unità:  Inglese    Metrico   Entrambi
Giorno Settimana Mese Anno
  Max: Min: Media:
Temperatura: 69.6 °F 42.3 °F 54.1 °F
Dew Point: 49.1 °F 19.8 °F 36.5 °F
Umidità: 95% 20.6% 60%
Velocità vento: 18.1mph 0.1mph 6.9mph
Raffica: 32.2mph - -
Direzione- - WNW
Pressione: 30 in 29.5 in -
Precipitazioni: 0.01 in    
 
 
Tabulato Dati per Marzo 27, 2023
Ora Temperatura Dew Point Pressione Direzione Velocità vento Raffica Umidità Intensità pioggia (oraria) Info solare Situazione
00:04 47.5 °F 45.9 °F 29.6 in West 4.4 mph 10 mph 94% 0 in 0 W/m2
00:09 47.3 °F 45.7 °F 29.6 in West 5.1 mph 8 mph 94% 0 in 0 W/m2
00:14 47.3 °F 45.9 °F 29.6 in West 6.6 mph 11.5 mph 94% 0 in 0 W/m2
00:19 47.7 °F 46 °F 29.6 in WNW 6.8 mph 12 mph 94% 0 in 0 W/m2
00:24 48 °F 46.4 °F 29.6 in NW 4.9 mph 12 mph 94% 0 in 0 W/m2
00:29 47.8 °F 46.2 °F 29.6 in NW 3.9 mph 12 mph 93.9% 0 in 0 W/m2
00:34 47.8 °F 46.2 °F 29.6 in WNW 3.5 mph 9.2 mph 94% 0 in 0 W/m2
00:39 47.8 °F 46 °F 29.6 in WNW 6.3 mph 12 mph 93.3% 0 in 0 W/m2
00:44 48.4 °F 46.8 °F 29.6 in WNW 10.7 mph 19.6 mph 94% 0 in 0 W/m2
00:49 48.7 °F 47.1 °F 29.6 in WNW 11.3 mph 20 mph 93.6% 0 in 0 W/m2
00:54 49.1 °F 47.1 °F 29.6 in WNW 9.6 mph 16.1 mph 93% 0 in 0 W/m2
00:59 49.1 °F 47.3 °F 29.5 in WNW 9.1 mph 16 mph 93% 0 in 0 W/m2
01:04 49.1 °F 46.9 °F 29.5 in WNW 7.8 mph 16 mph 92.6% 0 in 0 W/m2
01:09 48.9 °F 46.8 °F 29.5 in NW 7.7 mph 14 mph 92.4% 0 in 0 W/m2
01:14 48.7 °F 46.6 °F 29.5 in WNW 6.7 mph 13 mph 92% 0 in 0 W/m2
01:19 48.6 °F 46.4 °F 29.5 in WNW 7 mph 12 mph 92% 0 in 0 W/m2
01:24 48.6 °F 46.2 °F 29.6 in West 6.8 mph 12 mph 92% 0 in 0 W/m2
01:29 48.2 °F 46 °F 29.6 in West 7.1 mph 15 mph 92% 0 in 0 W/m2
01:34 48.2 °F 46 °F 29.6 in West 7.6 mph 15 mph 92% 0 in 0 W/m2
01:39 48.4 °F 46.4 °F 29.6 in West 8.3 mph 14 mph 92.7% 0 in 0 W/m2
01:44 48.6 °F 46.4 °F 29.6 in West 6.3 mph 14 mph 92.2% 0 in 0 W/m2
01:49 48.6 °F 46.4 °F 29.6 in West 4.6 mph 12 mph 92% 0 in 0 W/m2
01:54 48.2 °F 46 °F 29.6 in WSW 3.4 mph 8 mph 92% 0 in 0 W/m2
01:59 47.7 °F 45.5 °F 29.6 in West 3.5 mph 7 mph 92% 0 in 0 W/m2
02:04 47.5 °F 45.3 °F 29.6 in WSW 4 mph 7 mph 92% 0 in 0 W/m2
02:09 47.3 °F 45.1 °F 29.6 in SW 3.9 mph 8 mph 92% 0 in 0 W/m2
02:14 47.3 °F 45.3 °F 29.6 in SW 4.8 mph 8.1 mph 92.8% 0 in 0 W/m2
02:19 47.3 °F 45.3 °F 29.6 in WSW 5.1 mph 8.1 mph 93% 0 in 0 W/m2
02:24 46.9 °F 45.1 °F 29.6 in WSW 4.7 mph 10 mph 93% 0 in 0 W/m2
02:29 46.8 °F 44.8 °F 29.6 in WSW 6.1 mph 10.4 mph 93% 0 in 0 W/m2
02:34 46.6 °F 44.8 °F 29.6 in West 5.7 mph 10.4 mph 93% 0 in 0 W/m2
02:39 46.8 °F 45 °F 29.6 in West 6.1 mph 10.4 mph 93% 0 in 0 W/m2
02:44 46.9 °F 45 °F 29.6 in West 5 mph 10 mph 93% 0 in 0 W/m2
02:49 46.9 °F 45 °F 29.6 in WNW 2.9 mph 9 mph 93% 0 in 0 W/m2
02:54 46.8 °F 44.8 °F 29.6 in NNE 2.3 mph 5 mph 93% 0 in 0 W/m2
02:59 46.4 °F 44.6 °F 29.6 in ENE 1.7 mph 6 mph 93% 0 in 0 W/m2
03:04 45.9 °F 44.1 °F 29.6 in East 3.7 mph 6 mph 93% 0 in 0 W/m2
03:09 45.9 °F 44.1 °F 29.6 in ESE 1.9 mph 6 mph 93.3% 0 in 0 W/m2
03:14 45.5 °F 43.7 °F 29.6 in ESE 0.1 mph 3 mph 93.2% 0 in 0 W/m2
03:19 45.5 °F 43.9 °F 29.6 in SW 0.2 mph 2.3 mph 93.8% 0 in 0 W/m2
03:24 45 °F 43.3 °F 29.6 in WSW 1.3 mph 2.3 mph 94% 0 in 0 W/m2
03:29 45 °F 43.3 °F 29.6 in WSW 0.9 mph 2.3 mph 94% 0 in 0 W/m2
03:34 45 °F 43.3 °F 29.6 in SSW 0.4 mph 4 mph 94% 0 in 0 W/m2
03:39 44.6 °F 43 °F 29.6 in South 2.1 mph 4 mph 94% 0 in 0 W/m2
03:44 44.6 °F 43 °F 29.6 in SSW 0.9 mph 3.5 mph 94% 0 in 0 W/m2
03:49 44.4 °F 42.8 °F 29.6 in South 0.7 mph 3.5 mph 94% 0 in 0 W/m2
03:54 44.4 °F 42.8 °F 29.6 in SSW 1.9 mph 3.5 mph 94% 0 in 0 W/m2
03:59 44.2 °F 42.6 °F 29.6 in WSW 2.1 mph 4 mph 94% 0 in 0 W/m2
04:04 44.1 °F 42.6 °F 29.6 in WSW 2.4 mph 5 mph 94.6% 0 in 0 W/m2
04:09 43.3 °F 41.7 °F 29.6 in WSW 3.9 mph 6 mph 94% 0 in 0 W/m2
04:14 42.6 °F 41 °F 29.6 in WSW 4.3 mph 6 mph 94% 0 in 0 W/m2
04:19 43.2 °F 41.7 °F 29.6 in West 3.6 mph 6 mph 94.8% 0 in 0 W/m2
04:24 43.9 °F 42.6 °F 29.6 in West 4.1 mph 7 mph 95% 0 in 0 W/m2
04:29 43.9 °F 42.6 °F 29.6 in West 4.5 mph 7 mph 95% 0 in 0 W/m2
04:34 43.7 °F 42.3 °F 29.6 in West 4.8 mph 7 mph 95% 0 in 0 W/m2
04:39 43.5 °F 42.3 °F 29.6 in West 4.2 mph 7 mph 95% 0 in 0 W/m2
04:44 43.7 °F 42.3 °F 29.6 in West 4.1 mph 7 mph 94.4% 0 in 0 W/m2
04:49 44.1 °F 42.4 °F 29.6 in West 4.3 mph 7 mph 94.2% 0 in 0 W/m2
04:54 44.2 °F 42.6 °F 29.6 in WNW 5 mph 8.1 mph 94% 0 in 0 W/m2
04:59 44.2 °F 42.8 °F 29.6 in WNW 4.8 mph 8.1 mph 94% 0 in 0 W/m2
05:04 44.4 °F 42.6 °F 29.6 in WNW 4.7 mph 8 mph 93.6% 0 in 0 W/m2
05:09 44.2 °F 42.4 °F 29.6 in WNW 3.4 mph 7 mph 93.2% 0 in 0 W/m2
05:14 44.2 °F 42.3 °F 29.6 in WNW 3.4 mph 6 mph 93% 0 in 0 W/m2
05:19 44.1 °F 42.3 °F 29.6 in WNW 3.2 mph 6 mph 93% 0 in 0 W/m2
05:24 44.1 °F 42.1 °F 29.6 in West 4 mph 7 mph 93% 0 in 0 W/m2
05:29 44.2 °F 42.3 °F 29.6 in West 5.4 mph 7 mph 93% 0 in 0 W/m2
05:34 44.2 °F 42.3 °F 29.6 in West 5.6 mph 9.2 mph 93% 0 in 0 W/m2
05:39 44.2 °F 42.4 °F 29.6 in West 4.5 mph 9 mph 93% 0 in 0 W/m2
05:44 44.2 °F 42.3 °F 29.6 in West 5 mph 8 mph 93% 0 in 0 W/m2
05:49 44.4 °F 42.4 °F 29.6 in WNW 5.5 mph 10.4 mph 93% 0 in 0 W/m2
05:54 44.6 °F 42.8 °F 29.6 in West 5.3 mph 10 mph 93% 0 in 0 W/m2
05:59 44.6 °F 42.8 °F 29.6 in WNW 5.5 mph 9.2 mph 93% 0 in 0 W/m2
06:04 44.6 °F 42.8 °F 29.6 in WNW 6 mph 9.2 mph 93% 0.01 in 0 W/m2
06:09 44.6 °F 42.8 °F 29.6 in WNW 5.6 mph 9 mph 93% 0.01 in 0 W/m2
06:14 44.6 °F 42.6 °F 29.6 in WNW 5.8 mph 8.1 mph 93% 0.01 in 0 W/m2
06:19 44.6 °F 42.6 °F 29.6 in WNW 5 mph 8.1 mph 92.6% 0.01 in 0 W/m2
06:24 44.6 °F 42.4 °F 29.6 in WNW 5.1 mph 8.1 mph 92.2% 0.01 in 0 W/m2
06:29 44.4 °F 42.3 °F 29.6 in WNW 4.3 mph 8 mph 92% 0.01 in 0 W/m2
06:34 44.2 °F 42.1 °F 29.6 in WNW 3.1 mph 7 mph 92% 0.01 in 0 W/m2
06:39 44.1 °F 41.7 °F 29.6 in WNW 3 mph 6 mph 91.5% 0.01 in 0 W/m2
06:44 43.9 °F 41.5 °F 29.6 in NW 1.5 mph 4 mph 92% 0.01 in 0 W/m2
06:49 43.5 °F 41.2 °F 29.6 in NW 1.4 mph 3.5 mph 92% 0.01 in 0 W/m2
06:54 43.3 °F 41.2 °F 29.6 in WNW 1.2 mph 3.5 mph 92% 0.01 in 0 W/m2
06:59 43.3 °F 41 °F 29.6 in West 2.4 mph 4 mph 92% 0.01 in 0 W/m2
07:04 43.2 °F 41 °F 29.6 in WNW 3.1 mph 6 mph 92% 0.01 in 0 W/m2
07:09 43.3 °F 41.4 °F 29.6 in WNW 3.1 mph 6 mph 92.5% 0 in 0 W/m2
07:14 43.3 °F 41.2 °F 29.6 in West 4.2 mph 7 mph 92% 0 in 5 W/m2
07:19 43.2 °F 41.2 °F 29.6 in WNW 4.4 mph 7 mph 92.5% 0 in 7 W/m2
07:24 43.3 °F 41.4 °F 29.6 in WNW 4.3 mph 7 mph 93% 0 in 11 W/m2
07:29 43.2 °F 41.4 °F 29.6 in WNW 3.9 mph 7 mph 92.8% 0 in 12 W/m2
07:34 43.2 °F 41.2 °F 29.6 in WNW 3.3 mph 7 mph 92.8% 0 in 16 W/m2
07:39 42.8 °F 41 °F 29.6 in WNW 2.3 mph 5 mph 93% 0 in 18 W/m2
07:44 42.8 °F 40.8 °F 29.6 in NW 2.6 mph 6 mph 93% 0 in 18 W/m2
07:49 42.8 °F 41 °F 29.6 in WNW 3 mph 6 mph 93% 0 in 19 W/m2
07:54 42.8 °F 41 °F 29.6 in WNW 3.9 mph 6 mph 93% 0 in 19 W/m2
07:59 42.6 °F 40.6 °F 29.6 in WNW 3 mph 6 mph 92.6% 0 in 19 W/m2
08:04 42.4 °F 40.5 °F 29.6 in WNW 2.3 mph 6 mph 92.6% 0 in 19 W/m2
08:09 42.4 °F 40.3 °F 29.6 in WNW 2.9 mph 5 mph 92.3% 0 in 19 W/m2
08:14 42.3 °F 40.3 °F 29.6 in West 4 mph 7 mph 92.6% 0 in 19 W/m2
08:19 42.3 °F 40.3 °F 29.6 in NW 3.1 mph 7 mph 92.8% 0 in 21 W/m2
08:24 42.3 °F 40.1 °F 29.6 in WNW 3.7 mph 6 mph 92% 0 in 51 W/m2
08:29 42.4 °F 40.1 °F 29.6 in WNW 4.3 mph 7 mph 92% 0 in 153 W/m2
08:34 42.8 °F 40.8 °F 29.6 in West 5 mph 8 mph 92.7% 0 in 169 W/m2
08:39 43.3 °F 41.4 °F 29.6 in WNW 5.5 mph 9.2 mph 92.3% 0 in 195 W/m2
08:44 44.2 °F 42.1 °F 29.6 in WNW 5.7 mph 11 mph 92% 0 in 211 W/m2
08:49 45 °F 42.6 °F 29.6 in West 6.2 mph 12 mph 92% 0 in 225 W/m2
08:54 45.5 °F 43 °F 29.6 in WNW 6.2 mph 12 mph 91% 0 in 239 W/m2
08:59 46 °F 43.5 °F 29.6 in WNW 6.8 mph 11 mph 90.7% 0 in 255 W/m2
09:04 46.8 °F 43.9 °F 29.6 in WNW 9.1 mph 12 mph 89.6% 0 in 272 W/m2
09:09 47.1 °F 44.1 °F 29.6 in WNW 9.8 mph 14 mph 88.6% 0 in 287 W/m2
09:14 47.7 °F 44.2 °F 29.6 in WNW 9.1 mph 14 mph 87.7% 0 in 301 W/m2
09:19 48.2 °F 44.2 °F 29.7 in WNW 8.9 mph 14 mph 86.4% 0 in 302 W/m2
09:24 48.6 °F 44.4 °F 29.7 in WNW 10.1 mph 17.3 mph 85.5% 0 in 272 W/m2
09:29 48.9 °F 44.4 °F 29.7 in WNW 10.3 mph 17.3 mph 84% 0 in 345 W/m2
09:34 49.5 °F 44.6 °F 29.7 in WNW 7.8 mph 15 mph 83.3% 0 in 357 W/m2
09:39 49.8 °F 44.4 °F 29.7 in WNW 8.6 mph 14 mph 81.7% 0 in 374 W/m2
09:44 50.2 °F 44.6 °F 29.7 in WNW 8 mph 14 mph 81.3% 0 in 383 W/m2
09:49 50.7 °F 45.1 °F 29.7 in NW 6.7 mph 13 mph 81.2% 0 in 397 W/m2
09:54 51.1 °F 44.8 °F 29.7 in WNW 9.3 mph 15 mph 79.1% 0 in 413 W/m2
09:59 51.3 °F 44.6 °F 29.7 in WNW 9.3 mph 15 mph 78.3% 0 in 425 W/m2
10:04 51.3 °F 44.4 °F 29.7 in West 7.8 mph 13 mph 77.4% 0 in 441 W/m2
10:09 51.6 °F 44.6 °F 29.7 in West 8.8 mph 13 mph 77% 0 in 455 W/m2
10:14 52 °F 44.8 °F 29.7 in West 8.8 mph 14 mph 76.5% 0 in 469 W/m2
10:19 52.2 °F 44.6 °F 29.7 in WNW 7.8 mph 14 mph 75.2% 0 in 480 W/m2
10:24 52.7 °F 45.3 °F 29.7 in WNW 8.8 mph 14 mph 75.9% 0 in 490 W/m2
10:29 53.1 °F 45.3 °F 29.7 in West 7.2 mph 14 mph 75% 0 in 503 W/m2
10:34 53.1 °F 45 °F 29.7 in WNW 8 mph 12 mph 74.3% 0 in 517 W/m2
10:39 53.1 °F 45.5 °F 29.7 in WNW 7.8 mph 12 mph 75% 0 in 529 W/m2
10:44 53.4 °F 45.7 °F 29.7 in WNW 8.2 mph 13 mph 74.8% 0 in 541 W/m2
10:49 54 °F 45.9 °F 29.7 in WNW 8.1 mph 13 mph 74.4% 0 in 554 W/m2
10:54 54.3 °F 46.2 °F 29.7 in WNW 9.2 mph 17.3 mph 73.7% 0 in 563 W/m2
10:59 55.2 °F 46 °F 29.7 in WNW 10.8 mph 17.3 mph 70.9% 0 in 577 W/m2
11:04 55.9 °F 46.2 °F 29.7 in WNW 9.6 mph 17.3 mph 69.6% 0 in 587 W/m2
11:09 56.5 °F 46.2 °F 29.7 in WNW 10.7 mph 17.3 mph 68.6% 0 in 598 W/m2
11:14 57 °F 46.8 °F 29.7 in West 12.4 mph 18.4 mph 68.7% 0 in 606 W/m2
11:19 57.4 °F 46.8 °F 29.7 in WNW 12.6 mph 18 mph 67.6% 0 in 619 W/m2
11:24 57.7 °F 46.2 °F 29.7 in WNW 12.8 mph 18.4 mph 65.1% 0 in 629 W/m2
11:29 58.1 °F 46 °F 29.7 in WNW 11.9 mph 19.6 mph 64.2% 0 in 635 W/m2
11:34 58.3 °F 45.9 °F 29.7 in WNW 13 mph 20 mph 63.4% 0 in 643 W/m2
11:39 58.6 °F 46 °F 29.7 in WNW 13.4 mph 20 mph 63.3% 0 in 654 W/m2
11:44 58.8 °F 46.4 °F 29.7 in WNW 13.4 mph 20 mph 63.4% 0 in 663 W/m2
11:49 59.4 °F 47.3 °F 29.7 in WNW 11.4 mph 20 mph 64.5% 0 in 668 W/m2
11:54 59.9 °F 47.3 °F 29.7 in WNW 11.7 mph 20 mph 63.2% 0 in 675 W/m2
11:59 60.3 °F 47.3 °F 29.7 in WNW 12.1 mph 18.4 mph 62.1% 0 in 686 W/m2
12:04 61.2 °F 48.4 °F 29.7 in WNW 10.8 mph 18 mph 63.1% 0 in 691 W/m2
12:09 61.5 °F 47.8 °F 29.7 in WNW 13.5 mph 20 mph 60.7% 0 in 700 W/m2
12:14 62.1 °F 48.7 °F 29.7 in WNW 10.7 mph 20 mph 61.8% 0 in 705 W/m2
12:19 62.6 °F 49.1 °F 29.7 in West 9.6 mph 18.4 mph 61.1% 0 in 712 W/m2
12:24 63.7 °F 49.1 °F 29.7 in WNW 8.8 mph 18 mph 59.3% 0 in 717 W/m2
12:29 64 °F 47.5 °F 29.7 in WNW 12.8 mph 21 mph 54.9% 0 in 719 W/m2
12:34 64.2 °F 45 °F 29.7 in WNW 13.9 mph 21 mph 49.7% 0 in 724 W/m2
12:39 64.6 °F 44.2 °F 29.7 in WNW 13.2 mph 20 mph 47.9% 0 in 729 W/m2
12:44 64.9 °F 44.8 °F 29.7 in WNW 11.9 mph 20 mph 48.1% 0 in 735 W/m2
12:49 65.3 °F 44.6 °F 29.7 in WNW 12.2 mph 20 mph 47% 0 in 737 W/m2
12:54 65.8 °F 44.8 °F 29.7 in WNW 11.5 mph 20 mph 46.8% 0 in 742 W/m2
12:59 66.2 °F 42.6 °F 29.7 in WNW 13.3 mph 22 mph 42.5% 0 in 744 W/m2
13:04 66.4 °F 43.2 °F 29.7 in WNW 11.4 mph 22 mph 42.9% 0 in 745 W/m2
13:09 66.6 °F 42.3 °F 29.7 in WNW 12.6 mph 20 mph 41.3% 0 in 745 W/m2
13:14 66.6 °F 40.3 °F 29.7 in WNW 13.2 mph 21 mph 38% 0 in 751 W/m2
13:19 66.6 °F 37.9 °F 29.7 in WNW 14.2 mph 22 mph 34.8% 0 in 754 W/m2
13:24 66.7 °F 38.5 °F 29.7 in WNW 14.4 mph 23 mph 35.2% 0 in 756 W/m2
13:29 66.7 °F 37.9 °F 29.7 in WNW 13.2 mph 23 mph 34.4% 0 in 758 W/m2
13:34 67.3 °F 39.2 °F 29.7 in WNW 11 mph 23 mph 35.7% 0 in 761 W/m2
13:39 67.5 °F 38.8 °F 29.7 in West 12.4 mph 22 mph 35.1% 0 in 775 W/m2
13:44 67.5 °F 38.3 °F 29.7 in WNW 13.4 mph 22 mph 34.1% 0 in 791 W/m2
13:49 68 °F 36.1 °F 29.7 in NW 7.9 mph 22 mph 30.9% 0 in 810 W/m2
13:54 67.8 °F 31.3 °F 29.7 in NW 7.8 mph 14 mph 25.7% 0 in 810 W/m2
13:59 67.5 °F 33.4 °F 29.7 in NNW 6.4 mph 14 mph 28.4% 0 in 798 W/m2
14:04 68 °F 33.6 °F 29.7 in NW 6.6 mph 13 mph 27.9% 0 in 796 W/m2
14:09 68.5 °F 34.2 °F 29.7 in NNW 6.1 mph 12 mph 28.2% 0 in 798 W/m2
14:14 68.2 °F 34.5 °F 29.7 in NNW 5.3 mph 12 mph 28.8% 0 in 798 W/m2
14:19 66.7 °F 32.9 °F 29.7 in NW 6.1 mph 10.4 mph 28.4% 0 in 72 W/m2
14:24 66.2 °F 32.2 °F 29.7 in NW 7.2 mph 15 mph 28.1% 0 in 782 W/m2
14:29 67.6 °F 32.5 °F 29.7 in NW 6.5 mph 15 mph 27% 0 in 782 W/m2
14:34 68.7 °F 32.9 °F 29.7 in NNW 9.2 mph 18 mph 26.5% 0 in 765 W/m2
14:39 68.7 °F 33.1 °F 29.7 in NNW 7.8 mph 18 mph 26.8% 0 in 786 W/m2
14:44 68.7 °F 32.2 °F 29.7 in NNW 7.3 mph 13 mph 25.9% 0 in 788 W/m2
14:49 68.4 °F 32.5 °F 29.7 in NNW 7.6 mph 17.3 mph 26.4% 0 in 831 W/m2
14:54 69.1 °F 31.5 °F 29.7 in NW 8.4 mph 17 mph 24.7% 0 in 875 W/m2
14:59 69.6 °F 33.6 °F 29.7 in NNW 7.3 mph 16 mph 26.6% 0 in 875 W/m2
15:04 68 °F 32.9 °F 29.7 in North 7.3 mph 14 mph 27.3% 0 in 188 W/m2
15:09 66.9 °F 32.9 °F 29.7 in NNW 6.3 mph 14 mph 28.1% 0 in 179 W/m2
15:14 66.6 °F 32.5 °F 29.7 in NNW 5.2 mph 9 mph 28.1% 0 in 207 W/m2
15:19 66.4 °F 32.5 °F 29.7 in NNW 5.4 mph 11.5 mph 28.3% 0 in 232 W/m2
15:24 66 °F 32.2 °F 29.7 in NW 6.1 mph 12 mph 28.2% 0 in 220 W/m2
15:29 65.7 °F 33.6 °F 29.7 in NNW 4.2 mph 12 mph 30.4% 0 in 211 W/m2
15:34 66.2 °F 33.1 °F 29.7 in NNW 4.7 mph 8.1 mph 29.2% 0 in 216 W/m2
15:39 66.4 °F 33.3 °F 29.7 in NNW 4.3 mph 11 mph 29.2% 0 in 715 W/m2
15:44 66.9 °F 34.3 °F 29.7 in NW 7.1 mph 14 mph 29.8% 0 in 715 W/m2
15:49 67.5 °F 30.4 °F 29.7 in WNW 14.8 mph 28 mph 25.1% 0 in 677 W/m2
15:54 67.5 °F 30.7 °F 29.7 in NW 12.4 mph 28 mph 25.4% 0 in 659 W/m2
15:59 68.4 °F 30.9 °F 29.7 in NW 8.1 mph 21 mph 24.8% 0 in 612 W/m2
16:04 68.4 °F 29.7 °F 29.7 in WNW 14.4 mph 23 mph 23.6% 0 in 605 W/m2
16:09 67.6 °F 28.9 °F 29.7 in WNW 18.1 mph 32.2 mph 23.4% 0 in 584 W/m2
16:14 67.5 °F 30 °F 29.7 in WNW 15.8 mph 32 mph 24.6% 0 in 580 W/m2
16:19 67.5 °F 29.1 °F 29.7 in WNW 16.7 mph 25.3 mph 23.8% 0 in 566 W/m2
16:24 67.3 °F 28.9 °F 29.7 in WNW 18 mph 26.5 mph 23.6% 0 in 552 W/m2
16:29 67.3 °F 28.8 °F 29.7 in WNW 15.8 mph 23 mph 23.5% 0 in 540 W/m2
16:34 67.3 °F 27.3 °F 29.7 in NW 17.2 mph 27 mph 22.3% 0 in 529 W/m2
16:39 67.3 °F 28.9 °F 29.7 in WNW 15.8 mph 27 mph 23.7% 0 in 513 W/m2
16:44 67.5 °F 27.9 °F 29.7 in WNW 14.5 mph 24 mph 22.7% 0 in 504 W/m2
16:49 67.8 °F 28.4 °F 29.7 in NW 9.6 mph 21 mph 22.9% 0 in 490 W/m2
16:54 68 °F 26.1 °F 29.7 in NW 10.8 mph 20 mph 20.6% 0 in 478 W/m2
16:59 68 °F 26.4 °F 29.7 in NW 10.7 mph 20 mph 20.9% 0 in 468 W/m2
17:04 67.8 °F 26.8 °F 29.7 in NW 10 mph 20 mph 21.3% 0 in 454 W/m2
17:09 68 °F 26.6 °F 29.7 in NW 9.6 mph 17.3 mph 21.1% 0 in 436 W/m2
17:14 67.8 °F 26.2 °F 29.7 in NW 8.6 mph 17 mph 20.9% 0 in 420 W/m2
17:19 67.8 °F 25.9 °F 29.7 in NW 9.8 mph 19.6 mph 20.7% 0 in 408 W/m2
17:24 67.6 °F 25.7 °F 29.7 in NW 10.4 mph 20 mph 20.6% 0 in 396 W/m2
17:29 67.3 °F 26.6 °F 29.7 in NW 12.1 mph 21 mph 21.5% 0 in 385 W/m2
17:34 66.9 °F 27.7 °F 29.7 in WNW 10.6 mph 21 mph 22.8% 0 in 374 W/m2
17:39 67.1 °F 27.5 °F 29.7 in NW 9.4 mph 20 mph 22.6% 0 in 353 W/m2
17:44 67.1 °F 27.7 °F 29.7 in NW 8.4 mph 17.3 mph 22.7% 0 in 339 W/m2
17:49 66.7 °F 26.4 °F 29.8 in NW 10.8 mph 18.4 mph 21.8% 0 in 323 W/m2
17:54 66.6 °F 26.1 °F 29.8 in NW 8.8 mph 18 mph 21.7% 0 in 311 W/m2
17:59 66.6 °F 26.8 °F 29.8 in NNW 7 mph 15 mph 22.3% 0 in 301 W/m2
18:04 66.6 °F 28.8 °F 29.8 in NW 8 mph 14 mph 24.1% 0 in 281 W/m2
18:09 66.4 °F 26.6 °F 29.8 in NW 7.6 mph 14 mph 22.2% 0 in 264 W/m2
18:14 66 °F 26.2 °F 29.8 in NW 7.3 mph 15 mph 22.2% 0 in 251 W/m2
18:19 65.8 °F 26.2 °F 29.8 in WNW 8 mph 15 mph 22.3% 0 in 232 W/m2
18:24 65.3 °F 28.8 °F 29.8 in WNW 6.8 mph 15 mph 25.3% 0 in 218 W/m2
18:29 64.8 °F 29.7 °F 29.8 in NW 9.4 mph 18.4 mph 26.7% 0 in 202 W/m2
18:34 64.4 °F 28.6 °F 29.8 in NW 9 mph 17.3 mph 25.9% 0 in 51 W/m2
18:39 64.2 °F 29.7 °F 29.8 in NW 7 mph 17 mph 27.3% 0 in 127 W/m2
18:44 63.9 °F 31.5 °F 29.8 in NW 5.9 mph 11.5 mph 29.6% 0 in 132 W/m2
18:49 63.5 °F 31.5 °F 29.8 in NW 5.4 mph 12 mph 30% 0 in 120 W/m2
18:54 63.1 °F 30 °F 29.8 in NW 6 mph 12 mph 28.5% 0 in 104 W/m2
18:59 63 °F 26.6 °F 29.8 in NNW 6.8 mph 12 mph 25% 0 in 84 W/m2
19:04 62.6 °F 25.3 °F 29.8 in NNW 6.7 mph 13 mph 24% 0 in 69 W/m2
19:09 62.2 °F 24.4 °F 29.8 in NNW 6 mph 13 mph 23.5% 0 in 58 W/m2
19:14 61.7 °F 25 °F 29.8 in NNW 7.8 mph 12.7 mph 24.5% 0 in 30 W/m2
19:19 61 °F 24.8 °F 29.8 in North 6.8 mph 13 mph 25% 0 in 19 W/m2
19:24 60.6 °F 23.5 °F 29.8 in NNW 7.8 mph 15 mph 24% 0 in 14 W/m2
19:29 60.3 °F 22.5 °F 29.8 in NNW 8.6 mph 15 mph 23.2% 0 in 11 W/m2
19:34 60.1 °F 21.6 °F 29.8 in NNW 8.1 mph 15 mph 22.4% 0 in 9 W/m2
19:39 59.9 °F 21 °F 29.8 in NNW 8.6 mph 15 mph 22.2% 0 in 5 W/m2
19:44 59.4 °F 21.2 °F 29.8 in NNW 7.8 mph 15 mph 22.7% 0 in 0 W/m2
19:49 58.8 °F 21.2 °F 29.8 in NNW 9.3 mph 15 mph 23.2% 0 in 0 W/m2
19:54 58.5 °F 21.6 °F 29.8 in NNW 6.9 mph 15 mph 23.9% 0 in 0 W/m2
19:59 57.9 °F 21.7 °F 29.8 in NNW 6.2 mph 13 mph 24.4% 0 in 0 W/m2
20:04 57.6 °F 21.9 °F 29.8 in North 6 mph 12 mph 25% 0 in 0 W/m2
20:09 57 °F 21.7 °F 29.8 in NNW 6 mph 10.4 mph 25.2% 0 in 0 W/m2
20:14 56.7 °F 21.9 °F 29.8 in NNW 5.8 mph 12 mph 25.8% 0 in 0 W/m2
20:19 56.3 °F 21.4 °F 29.8 in NNW 6.5 mph 14 mph 25.6% 0 in 0 W/m2
20:24 55.9 °F 21.4 °F 29.9 in NNW 6.9 mph 14 mph 25.8% 0 in 0 W/m2
20:29 55.6 °F 21.4 °F 29.9 in NNW 5.7 mph 14 mph 26.3% 0 in 0 W/m2
20:34 55.2 °F 21.4 °F 29.9 in North 5.9 mph 12 mph 26.5% 0 in 0 W/m2
20:39 54.9 °F 21.2 °F 29.9 in NNW 6 mph 12 mph 26.8% 0 in 0 W/m2
20:44 54.7 °F 20.3 °F 29.9 in North 6.2 mph 12 mph 25.8% 0 in 0 W/m2
20:49 54.9 °F 20.3 °F 29.9 in NNW 5.7 mph 12 mph 25.8% 0 in 0 W/m2
20:54 54.7 °F 19.9 °F 29.9 in NNW 6.1 mph 12 mph 25.4% 0 in 0 W/m2
20:59 54.5 °F 20.7 °F 29.9 in NNW 5.6 mph 12 mph 26.4% 0 in 0 W/m2
21:04 54.1 °F 21 °F 29.9 in NNW 5.3 mph 12 mph 27.3% 0 in 0 W/m2
21:09 54 °F 21.2 °F 29.9 in NNW 5.9 mph 11 mph 27.5% 0 in 0 W/m2
21:14 53.8 °F 21.2 °F 29.9 in North 5.2 mph 12 mph 27.6% 0 in 0 W/m2
21:19 53.4 °F 21.4 °F 29.9 in NNW 4.4 mph 12 mph 28.2% 0 in 0 W/m2
21:24 53.2 °F 22.1 °F 29.9 in NNW 6.1 mph 10.4 mph 29.3% 0 in 0 W/m2
21:29 53.2 °F 21.9 °F 29.9 in NNW 5.8 mph 10 mph 29.4% 0 in 0 W/m2
21:34 53.1 °F 23.5 °F 29.9 in NNW 5.2 mph 9.2 mph 31.6% 0 in 0 W/m2
21:39 52.5 °F 24.4 °F 29.9 in NNW 5.9 mph 11.5 mph 33.3% 0 in 0 W/m2
21:44 52.3 °F 25.3 °F 29.9 in NNW 6.5 mph 12 mph 34.8% 0 in 0 W/m2
21:49 52.2 °F 25.5 °F 29.9 in NNW 5.5 mph 12 mph 35.3% 0 in 0 W/m2
21:54 52 °F 25.9 °F 29.9 in NNW 6 mph 10 mph 36% 0 in 0 W/m2
21:59 52 °F 25.5 °F 29.9 in NNW 5.6 mph 10.4 mph 35.6% 0 in 0 W/m2
22:04 51.8 °F 26.1 °F 29.9 in NNW 6 mph 10 mph 36.4% 0 in 0 W/m2
22:09 51.6 °F 26.2 °F 29.9 in NNW 6 mph 11.5 mph 37.2% 0 in 0 W/m2
22:14 51.3 °F 26.2 °F 29.9 in NNW 5.9 mph 12 mph 37.8% 0 in 0 W/m2
22:19 50.7 °F 26.8 °F 29.9 in North 4.2 mph 10 mph 39% 0 in 0 W/m2
22:24 50.5 °F 26.8 °F 29.9 in NNW 4.5 mph 8 mph 39.6% 0 in 0 W/m2
22:29 50.2 °F 27.1 °F 29.9 in NNW 3.8 mph 7 mph 40.6% 0 in 0 W/m2
22:34 50 °F 27.1 °F 30 in NNW 4.9 mph 9 mph 41% 0 in 0 W/m2
22:39 49.8 °F 26.8 °F 30 in NNW 4.2 mph 9.2 mph 40.6% 0 in 0 W/m2
22:44 49.6 °F 26.8 °F 30 in NNW 3.4 mph 9 mph 40.9% 0 in 0 W/m2
22:47 49.5 °F 26.1 °F 30 in NNW 4 mph 7 mph 39.9% 0 in 0 W/m2
22:54 49.3 °F 25.5 °F 30 in NNW 3.9 mph 7 mph 39.2% 0 in 0 W/m2
22:59 48.9 °F 25.2 °F 30 in North 3.1 mph 5 mph 39.2% 0 in 0 W/m2
23:04 48.9 °F 24.4 °F 30 in NE 2 mph 5 mph 38.1% 0 in 0 W/m2
23:09 48.7 °F 23.7 °F 30 in NNE 3.1 mph 5 mph 37.2% 0 in 0 W/m2
23:14 48.6 °F 23.2 °F 30 in North 3 mph 6 mph 36.7% 0 in 0 W/m2
23:19 48.4 °F 22.8 °F 30 in North 3.5 mph 6 mph 36.4% 0 in 0 W/m2
23:24 48.6 °F 22.1 °F 30 in NNE 3.1 mph 6 mph 35% 0 in 0 W/m2
23:29 48.6 °F 21.6 °F 30 in North 3.7 mph 7 mph 34.1% 0 in 0 W/m2
23:34 48.7 °F 20.8 °F 30 in North 4.7 mph 7 mph 32.9% 0 in 0 W/m2
23:39 48.9 °F 20.8 °F 30 in North 4.5 mph 7 mph 32.6% 0 in 0 W/m2
23:44 48.9 °F 19.9 °F 30 in North 4.1 mph 7 mph 31.6% 0 in 0 W/m2
23:49 48.9 °F 19.8 °F 30 in NNW 3.5 mph 7 mph 31.2% 0 in 0 W/m2
23:54 48.6 °F 20.1 °F 30 in NNW 3.5 mph 6 mph 32% 0 in 0 W/m2
23:59 48.4 °F 19.9 °F 30 in North 3.3 mph 6 mph 32.2% 0 in 0 W/m2
Stazione Meteorologica MeteoMincio Rivalta s/M (MN)
Con i complimenti di Weather Underground - 4 mb


METEO PILLOLE
La più disastrosa inondazione causata da cicloni
Bangladesh
Nel novembre 1970 un ciclone nel Golfo del Bangladesh uccise circa 300.000 persone.

Do NOT follow this link or you will be banned from the site!